Time;durP1;ratioP1;P1;durP2;ratioP2;P2;SDS_P1;SDS_P2;PMS_P1;PMS_P2;Temp;Humidity;BMP_temperature;BMP_pressure;BME280_temperature;BME280_humidity;BME280_pressure;Samples;Min_cycle;Max_cycle;Signal;HPM_P1;HPM_P2
2023/11/04 00:01:15;;;;;;;7.50;1.92;;;;;;;;;;5034811;28;20028;-78
2023/11/04 00:03:41;;;;;;;6.13;1.70;;;;;;;;;;5047404;28;20031;-77
2023/11/04 00:06:07;;;;;;;7.72;1.13;;;;;;;;;;5033958;28;20436;-77
2023/11/04 00:08:32;;;;;;;7.18;1.20;;;;;;;;;;5044244;28;20021;-77
2023/11/04 00:10:57;;;;;;;5.30;1.27;;;;;;;;;;5021774;28;20041;-78
2023/11/04 00:13:22;;;;;;;9.45;1.45;;;;;;;;;;5047521;28;20025;-77
2023/11/04 00:15:47;;;;;;;8.50;1.10;;;;;;;;;;5046302;28;20519;-77
2023/11/04 00:18:13;;;;;;;6.10;1.52;;;;;;;;;;5048409;28;20113;-77
2023/11/04 00:20:38;;;;;;;5.80;1.42;;;;;;;;;;5022047;28;20032;-77
2023/11/04 00:23:04;;;;;;;6.70;1.60;;;;;;;;;;5045373;28;20024;-77
2023/11/04 00:25:29;;;;;;;8.00;1.33;;;;;;;;;;5003555;28;20390;-77
2023/11/04 00:27:54;;;;;;;6.45;1.45;;;;;;;;;;5050747;28;20579;-77
2023/11/04 00:30:19;;;;;;;5.70;1.33;;;;;;;;;;5049409;28;20082;-77
2023/11/04 00:32:44;;;;;;;3.80;1.08;;;;;;;;;;5047359;28;20025;-77
2023/11/04 00:35:10;;;;;;;4.78;1.40;;;;;;;;;;5033659;28;20056;-77
2023/11/04 00:37:35;;;;;;;6.13;1.30;;;;;;;;;;5045099;28;20104;-77
2023/11/04 00:40:01;;;;;;;6.65;1.40;;;;;;;;;;5017488;28;20493;-77
2023/11/04 00:42:26;;;;;;;6.75;1.25;;;;;;;;;;5051046;28;20035;-77
2023/11/04 00:44:52;;;;;;;7.47;1.30;;;;;;;;;;5022199;28;20029;-77
2023/11/04 00:47:17;;;;;;;5.47;1.13;;;;;;;;;;5033424;28;20024;-77
2023/11/04 00:49:42;;;;;;;5.82;1.25;;;;;;;;;;5043023;28;20474;-77
2023/11/04 00:52:10;;;;;;;5.32;1.58;;;;;;;;;;5032764;28;20405;-77
2023/11/04 00:54:35;;;;;;;2.80;0.90;;;;;;;;;;5025183;28;20560;-77
2023/11/04 00:57:01;;;;;;;5.50;1.17;;;;;;;;;;5032366;28;20103;-77
2023/11/04 00:59:26;;;;;;;4.70;1.38;;;;;;;;;;5047859;28;20033;-77
2023/11/04 01:01:51;;;;;;;4.13;1.48;;;;;;;;;;5043656;28;20086;-77
2023/11/04 01:04:16;;;;;;;5.25;1.20;;;;;;;;;;5021411;28;20405;-77
2023/11/04 01:06:42;;;;;;;6.60;1.30;;;;;;;;;;5040510;28;20490;-76
2023/11/04 01:09:07;;;;;;;5.10;1.17;;;;;;;;;;5018885;28;20037;-77
2023/11/04 01:11:32;;;;;;;7.95;1.40;;;;;;;;;;5041811;28;20032;-77
2023/11/04 01:13:58;;;;;;;8.07;1.63;;;;;;;;;;5048187;28;20032;-77
2023/11/04 01:16:23;;;;;;;3.42;1.10;;;;;;;;;;5047670;28;20037;-77
2023/11/04 01:18:48;;;;;;;7.78;1.20;;;;;;;;;;5016758;28;20112;-77
2023/11/04 01:21:14;;;;;;;6.30;1.48;;;;;;;;;;5016829;28;20375;-77
2023/11/04 01:23:39;;;;;;;7.82;1.58;;;;;;;;;;5020558;28;20088;-77
2023/11/04 01:26:04;;;;;;;11.23;1.52;;;;;;;;;;5016405;28;20071;-77
2023/11/04 01:28:30;;;;;;;6.63;1.42;;;;;;;;;;5020679;28;20029;-77
2023/11/04 01:30:55;;;;;;;5.55;1.40;;;;;;;;;;5017174;28;20029;-77
2023/11/04 01:33:20;;;;;;;4.28;1.20;;;;;;;;;;5021578;28;20036;-77
2023/11/04 01:35:46;;;;;;;7.72;2.10;;;;;;;;;;5045071;28;20029;-77
2023/11/04 01:38:11;;;;;;;6.05;1.17;;;;;;;;;;5015716;28;20022;-77
2023/11/04 01:40:36;;;;;;;6.13;1.10;;;;;;;;;;5043853;28;20119;-77
2023/11/04 01:43:01;;;;;;;7.13;1.40;;;;;;;;;;5027847;28;20021;-77
2023/11/04 01:45:27;;;;;;;4.68;1.33;;;;;;;;;;5030134;28;20032;-77
2023/11/04 01:47:52;;;;;;;5.75;1.60;;;;;;;;;;5024798;28;20032;-77
2023/11/04 01:50:17;;;;;;;6.18;1.50;;;;;;;;;;5050341;28;20100;-77
2023/11/04 01:52:43;;;;;;;6.03;1.25;;;;;;;;;;5033912;28;20025;-77
2023/11/04 01:55:09;;;;;;;7.38;1.13;;;;;;;;;;5051225;28;20394;-77
2023/11/04 01:57:35;;;;;;;7.72;1.20;;;;;;;;;;5045769;28;20017;-77
2023/11/04 02:00:00;;;;;;;10.20;1.65;;;;;;;;;;5024524;28;20574;-77
2023/11/04 02:02:27;;;;;;;6.28;1.67;;;;;;;;;;5027208;28;20025;-77
2023/11/04 02:04:53;;;;;;;13.45;1.83;;;;;;;;;;5047644;28;20489;-77
2023/11/04 02:07:18;;;;;;;7.47;1.88;;;;;;;;;;5036319;28;20021;-77
2023/11/04 02:09:43;;;;;;;6.95;1.45;;;;;;;;;;5031197;28;20078;-77
2023/11/04 02:12:09;;;;;;;7.55;1.77;;;;;;;;;;5049243;28;20027;-77
2023/11/04 02:14:34;;;;;;;5.50;1.25;;;;;;;;;;5021388;28;20700;-76
2023/11/04 02:17:00;;;;;;;8.05;1.73;;;;;;;;;;5003482;28;20029;-76
2023/11/04 02:19:26;;;;;;;9.15;1.60;;;;;;;;;;5035988;28;20021;-74
2023/11/04 02:21:51;;;;;;;4.40;1.20;;;;;;;;;;5042845;28;20033;-76
2023/11/04 02:24:17;;;;;;;5.07;1.48;;;;;;;;;;5032027;28;20033;-76
2023/11/04 02:26:42;;;;;;;6.95;1.33;;;;;;;;;;5020114;28;20021;-76
2023/11/04 02:29:07;;;;;;;7.30;1.77;;;;;;;;;;5036068;28;20421;-76
2023/11/04 02:31:33;;;;;;;6.95;1.75;;;;;;;;;;5020861;28;20026;-76
2023/11/04 02:33:59;;;;;;;5.88;1.40;;;;;;;;;;5050176;28;20382;-77
2023/11/04 02:36:24;;;;;;;8.05;1.50;;;;;;;;;;5047147;28;20028;-76
2023/11/04 02:38:50;;;;;;;6.88;1.40;;;;;;;;;;5021599;28;20025;-76
2023/11/04 02:41:16;;;;;;;9.45;2.17;;;;;;;;;;5046856;28;20046;-77
2023/11/04 02:43:41;;;;;;;5.15;1.40;;;;;;;;;;5046535;28;20033;-75
2023/11/04 02:46:06;;;;;;;5.68;1.58;;;;;;;;;;5035464;28;20064;-76
2023/11/04 02:48:31;;;;;;;6.10;0.93;;;;;;;;;;5051858;28;20029;-76
2023/11/04 02:50:56;;;;;;;7.53;1.25;;;;;;;;;;5029663;28;20029;-76
2023/11/04 02:53:22;;;;;;;10.30;1.88;;;;;;;;;;5048718;28;20529;-76
2023/11/04 02:55:47;;;;;;;10.50;2.22;;;;;;;;;;5022444;28;20033;-76
2023/11/04 02:58:12;;;;;;;5.85;1.20;;;;;;;;;;5027929;28;20033;-76
2023/11/04 03:00:37;;;;;;;7.35;1.40;;;;;;;;;;5023045;28;20056;-76
2023/11/04 03:03:02;;;;;;;3.83;1.30;;;;;;;;;;5050383;28;20100;-77
2023/11/04 03:05:28;;;;;;;9.77;1.85;;;;;;;;;;5023443;28;20437;-76
2023/11/04 03:07:53;;;;;;;5.38;1.10;;;;;;;;;;5045234;28;20490;-77
2023/11/04 03:10:18;;;;;;;11.23;1.65;;;;;;;;;;5028557;28;20032;-76
2023/11/04 03:12:44;;;;;;;8.15;1.27;;;;;;;;;;5025944;28;20454;-77
2023/11/04 03:15:10;;;;;;;6.72;1.17;;;;;;;;;;5035052;28;20047;-77
2023/11/04 03:17:35;;;;;;;4.85;1.13;;;;;;;;;;5050138;28;20127;-77
2023/11/04 03:20:01;;;;;;;5.25;1.73;;;;;;;;;;5047389;28;20154;-76
2023/11/04 03:22:26;;;;;;;8.00;1.30;;;;;;;;;;5028777;28;20104;-76
2023/11/04 03:24:51;;;;;;;2.50;0.90;;;;;;;;;;5043944;28;20041;-76
2023/11/04 03:27:17;;;;;;;6.00;1.10;;;;;;;;;;5044948;28;20484;-76
2023/11/04 03:29:43;;;;;;;6.20;1.50;;;;;;;;;;5024483;28;20037;-76
2023/11/04 03:32:09;;;;;;;8.20;1.30;;;;;;;;;;5034890;28;20111;-76
2023/11/04 03:34:34;;;;;;;7.65;1.02;;;;;;;;;;5029118;28;20041;-76
2023/11/04 03:37:03;;;;;;;6.13;1.08;;;;;;;;;;5044608;28;20037;-76
2023/11/04 03:39:29;;;;;;;4.55;1.00;;;;;;;;;;5027081;28;20026;-76
2023/11/04 03:41:55;;;;;;;5.45;1.25;;;;;;;;;;5047852;28;20037;-76
2023/11/04 03:44:20;;;;;;;7.13;1.15;;;;;;;;;;5034336;28;20025;-76
2023/11/04 03:46:45;;;;;;;6.00;1.30;;;;;;;;;;5032608;28;20051;-77
2023/11/04 03:49:10;;;;;;;5.50;1.30;;;;;;;;;;5034626;28;20025;-76
2023/11/04 03:51:36;;;;;;;5.45;1.17;;;;;;;;;;5043766;28;20108;-77
2023/11/04 03:54:01;;;;;;;7.88;1.33;;;;;;;;;;5046555;28;20024;-77
2023/11/04 03:56:26;;;;;;;7.88;2.30;;;;;;;;;;5051432;28;20036;-75
2023/11/04 03:58:51;;;;;;;8.05;1.55;;;;;;;;;;5048602;28;20038;-76
2023/11/04 04:01:17;;;;;;;6.78;1.65;;;;;;;;;;5048399;28;20037;-76
2023/11/04 04:03:42;;;;;;;7.15;1.38;;;;;;;;;;5046813;28;20029;-77
2023/11/04 04:06:07;;;;;;;5.35;1.50;;;;;;;;;;5027495;28;20052;-76
2023/11/04 04:08:33;;;;;;;5.15;1.40;;;;;;;;;;5028371;28;20063;-76
2023/11/04 04:10:59;;;;;;;8.35;2.13;;;;;;;;;;5050073;28;20030;-77
2023/11/04 04:13:24;;;;;;;6.97;1.98;;;;;;;;;;5043878;28;20082;-78
2023/11/04 04:15:49;;;;;;;8.57;1.52;;;;;;;;;;5023742;28;20472;-77
2023/11/04 04:18:15;;;;;;;6.38;1.33;;;;;;;;;;5030829;28;20096;-76
2023/11/04 04:20:40;;;;;;;7.60;0.98;;;;;;;;;;5034111;28;20485;-77
2023/11/04 04:23:05;;;;;;;6.68;1.08;;;;;;;;;;5049373;28;20068;-77
2023/11/04 04:25:30;;;;;;;8.98;1.25;;;;;;;;;;5053260;28;20029;-77
2023/11/04 04:27:56;;;;;;;9.35;1.45;;;;;;;;;;5050493;28;20059;-77
2023/11/04 04:30:21;;;;;;;8.82;1.50;;;;;;;;;;5035895;28;20397;-77
2023/11/04 04:32:47;;;;;;;5.53;1.23;;;;;;;;;;5027034;28;20033;-77
2023/11/04 04:35:12;;;;;;;6.68;1.25;;;;;;;;;;5048392;28;20025;-77
2023/11/04 04:37:38;;;;;;;4.93;1.58;;;;;;;;;;5055749;28;20112;-77
2023/11/04 04:40:04;;;;;;;7.07;1.45;;;;;;;;;;5054070;28;20118;-77
2023/11/04 04:42:30;;;;;;;6.75;1.35;;;;;;;;;;5050816;28;20570;-78
2023/11/04 04:44:55;;;;;;;5.47;1.00;;;;;;;;;;5047447;28;20037;-80
2023/11/04 04:47:20;;;;;;;7.05;1.85;;;;;;;;;;5045835;28;20079;-77
2023/11/04 04:49:47;;;;;;;6.65;1.55;;;;;;;;;;5042872;28;20053;-76
2023/11/04 04:52:12;;;;;;;4.80;0.90;;;;;;;;;;5035915;28;20397;-77
2023/11/04 04:54:37;;;;;;;5.15;1.15;;;;;;;;;;5043165;28;20112;-76
2023/11/04 04:57:03;;;;;;;5.75;1.65;;;;;;;;;;5042864;28;20038;-77
2023/11/04 04:59:28;;;;;;;5.85;1.20;;;;;;;;;;5046740;28;20409;-77
2023/11/04 05:01:53;;;;;;;5.63;1.15;;;;;;;;;;5046715;28;20037;-76
2023/11/04 05:04:18;;;;;;;8.23;1.38;;;;;;;;;;5042829;28;20043;-77
2023/11/04 05:06:43;;;;;;;7.55;1.13;;;;;;;;;;5041769;28;20544;-77
2023/11/04 05:09:09;;;;;;;4.43;1.30;;;;;;;;;;5044167;28;20067;-77
2023/11/04 05:11:34;;;;;;;4.63;1.00;;;;;;;;;;5047525;28;20033;-77
2023/11/04 05:13:59;;;;;;;3.85;1.10;;;;;;;;;;5042092;28;20036;-76
2023/11/04 05:16:24;;;;;;;3.03;0.90;;;;;;;;;;5034720;28;20037;-77
2023/11/04 05:18:50;;;;;;;6.68;1.67;;;;;;;;;;5045540;28;20091;-77
2023/11/04 05:21:18;;;;;;;4.65;1.35;;;;;;;;;;5046549;28;20477;-77
2023/11/04 05:23:44;;;;;;;4.43;0.90;;;;;;;;;;5028216;28;20059;-75
2023/11/04 05:26:09;;;;;;;7.05;1.33;;;;;;;;;;5045884;28;20100;-77
2023/11/04 05:28:34;;;;;;;4.97;1.40;;;;;;;;;;5043174;28;20409;-77
2023/11/04 05:31:00;;;;;;;5.15;1.40;;;;;;;;;;5042038;28;20108;-76
2023/11/04 05:33:25;;;;;;;4.55;0.68;;;;;;;;;;5046366;28;20029;-75
2023/11/04 05:35:51;;;;;;;5.93;1.10;;;;;;;;;;5047464;28;20106;-77
2023/11/04 05:38:17;;;;;;;6.05;1.35;;;;;;;;;;5049600;28;20033;-77
2023/11/04 05:40:42;;;;;;;5.05;1.10;;;;;;;;;;5042172;28;20060;-76
2023/11/04 05:43:07;;;;;;;6.57;0.77;;;;;;;;;;5029505;28;20055;-76
2023/11/04 05:45:33;;;;;;;4.50;0.75;;;;;;;;;;5042941;28;20080;-77
2023/11/04 05:47:58;;;;;;;5.57;1.02;;;;;;;;;;5048017;28;20056;-76
2023/11/04 05:50:24;;;;;;;8.07;1.05;;;;;;;;;;5048172;28;20082;-77
2023/11/04 05:52:50;;;;;;;4.78;1.00;;;;;;;;;;5029220;28;20116;-76
2023/11/04 05:55:15;;;;;;;4.43;0.60;;;;;;;;;;5048116;28;20067;-77
2023/11/04 05:57:41;;;;;;;3.35;0.77;;;;;;;;;;5041141;28;20140;-77
2023/11/04 06:00:11;;;;;;;6.38;1.17;;;;;;;;;;5042052;28;20061;-76
2023/11/04 06:02:37;;;;;;;4.45;0.90;;;;;;;;;;5049266;28;20021;-76
2023/11/04 06:05:02;;;;;;;2.38;0.77;;;;;;;;;;5029819;28;20043;-76
2023/11/04 06:07:27;;;;;;;2.55;0.80;;;;;;;;;;5046171;28;20120;-77
2023/11/04 06:09:52;;;;;;;4.50;0.93;;;;;;;;;;5044851;28;20030;-76
2023/11/04 06:12:17;;;;;;;3.70;0.95;;;;;;;;;;5043158;28;20025;-77
2023/11/04 06:14:45;;;;;;;3.50;0.95;;;;;;;;;;5044415;28;20033;-77
2023/11/04 06:17:12;;;;;;;4.22;1.10;;;;;;;;;;5045966;28;20039;-77
2023/11/04 06:19:37;;;;;;;4.95;0.90;;;;;;;;;;5035459;28;20067;-77
2023/11/04 06:22:02;;;;;;;4.85;0.90;;;;;;;;;;5048037;28;20470;-76
2023/11/04 06:24:27;;;;;;;4.40;0.85;;;;;;;;;;5049916;28;20453;-77
2023/11/04 06:26:54;;;;;;;5.13;1.35;;;;;;;;;;5043902;28;20107;-76
2023/11/04 06:29:19;;;;;;;2.00;0.70;;;;;;;;;;5050866;28;20025;-76
2023/11/04 06:31:44;;;;;;;3.00;0.75;;;;;;;;;;5050428;28;20029;-75
2023/11/04 06:34:09;;;;;;;5.47;1.10;;;;;;;;;;5049179;28;20127;-77
2023/11/04 06:36:35;;;;;;;4.88;1.13;;;;;;;;;;5047011;28;20028;-76
2023/11/04 06:39:00;;;;;;;5.00;1.35;;;;;;;;;;5045788;28;20030;-77
2023/11/04 06:41:26;;;;;;;2.80;0.98;;;;;;;;;;5045721;28;20056;-77
2023/11/04 06:43:52;;;;;;;1.73;0.73;;;;;;;;;;5034299;28;20083;-77
2023/11/04 06:46:17;;;;;;;2.60;0.70;;;;;;;;;;5050682;28;20029;-77
2023/11/04 06:48:43;;;;;;;3.75;0.70;;;;;;;;;;5049184;28;20112;-76
2023/11/04 06:51:08;;;;;;;2.05;0.80;;;;;;;;;;5047546;28;20021;-77
2023/11/04 06:53:33;;;;;;;3.22;0.65;;;;;;;;;;5026856;28;20032;-76
2023/11/04 06:56:00;;;;;;;3.60;0.68;;;;;;;;;;5047285;28;20039;-76
2023/11/04 06:58:31;;;;;;;4.13;0.75;;;;;;;;;;5021518;28;20021;-76
2023/11/04 07:00:57;;;;;;;3.33;0.90;;;;;;;;;;5050440;28;20037;-76
2023/11/04 07:03:22;;;;;;;3.28;0.93;;;;;;;;;;5048777;28;20035;-76
2023/11/04 07:05:47;;;;;;;2.95;0.47;;;;;;;;;;5026431;28;20100;-76
2023/11/04 07:08:16;;;;;;;4.88;0.75;;;;;;;;;;5048884;28;20104;-76
2023/11/04 07:10:41;;;;;;;5.90;0.90;;;;;;;;;;5048710;28;20024;-77
2023/11/04 07:13:12;;;;;;;2.65;0.90;;;;;;;;;;5050262;28;20052;-77
2023/11/04 07:15:43;;;;;;;2.72;0.50;;;;;;;;;;5048606;28;20056;-77
2023/11/04 07:18:08;;;;;;;2.35;0.70;;;;;;;;;;5029898;28;20035;-77
2023/11/04 07:20:34;;;;;;;1.23;0.35;;;;;;;;;;5047783;28;20116;-76
2023/11/04 07:23:00;;;;;;;2.33;0.60;;;;;;;;;;5025700;28;20193;-76
2023/11/04 07:25:25;;;;;;;2.88;0.50;;;;;;;;;;5051633;28;20056;-75
2023/11/04 07:27:50;;;;;;;2.10;0.40;;;;;;;;;;5047454;28;20029;-77
2023/11/04 07:30:15;;;;;;;2.38;0.75;;;;;;;;;;5045880;28;20017;-76
2023/11/04 07:32:41;;;;;;;1.67;0.50;;;;;;;;;;5045430;28;20063;-76
2023/11/04 07:35:07;;;;;;;0.35;0.30;;;;;;;;;;5027467;28;20049;-77
2023/11/04 07:37:32;;;;;;;5.25;0.50;;;;;;;;;;5044867;28;20029;-77
2023/11/04 07:39:58;;;;;;;1.80;0.40;;;;;;;;;;5049807;28;20037;-75
2023/11/04 07:42:23;;;;;;;2.83;0.30;;;;;;;;;;5049506;28;20568;-76
2023/11/04 07:44:49;;;;;;;3.22;0.93;;;;;;;;;;5045735;28;20116;-77
2023/11/04 07:47:14;;;;;;;5.55;0.95;;;;;;;;;;5046746;28;20100;-77
2023/11/04 07:49:39;;;;;;;6.78;0.65;;;;;;;;;;5042586;28;20029;-76
2023/11/04 07:52:06;;;;;;;5.72;1.25;;;;;;;;;;5050611;28;20033;-77
2023/11/04 07:54:31;;;;;;;2.50;0.85;;;;;;;;;;5034363;28;20037;-77
2023/11/04 07:56:56;;;;;;;1.83;0.40;;;;;;;;;;5047222;28;20044;-77
2023/11/04 07:59:22;;;;;;;3.45;0.52;;;;;;;;;;5047528;28;20409;-77
2023/11/04 08:01:47;;;;;;;6.90;1.35;;;;;;;;;;5024251;28;20044;-75
2023/11/04 08:04:12;;;;;;;1.50;0.40;;;;;;;;;;5047464;28;20037;-77
2023/11/04 08:06:37;;;;;;;4.45;0.60;;;;;;;;;;5047674;28;20036;-77
2023/11/04 08:09:03;;;;;;;2.72;0.60;;;;;;;;;;5047143;28;20037;-77
2023/11/04 08:11:29;;;;;;;1.25;0.30;;;;;;;;;;5033943;28;20079;-77
2023/11/04 08:13:54;;;;;;;2.50;0.35;;;;;;;;;;5031651;28;20034;-78
2023/11/04 08:16:19;;;;;;;3.88;0.50;;;;;;;;;;5045616;28;20086;-77
2023/11/04 08:18:45;;;;;;;3.20;0.30;;;;;;;;;;5042113;28;20105;-77
2023/11/04 08:21:13;;;;;;;2.58;0.30;;;;;;;;;;5050418;28;20162;-77
2023/11/04 08:23:38;;;;;;;7.30;0.60;;;;;;;;;;5049908;28;20055;-77
2023/11/04 08:26:04;;;;;;;2.53;0.40;;;;;;;;;;5046299;28;20490;-77
2023/11/04 08:28:29;;;;;;;1.65;0.40;;;;;;;;;;5028221;28;20033;-77
2023/11/04 08:30:55;;;;;;;1.30;0.52;;;;;;;;;;5041514;28;20030;-77
2023/11/04 08:33:20;;;;;;;1.20;0.40;;;;;;;;;;5033804;28;20020;-77
2023/11/04 08:35:45;;;;;;;1.55;0.55;;;;;;;;;;5031463;28;20432;-77
2023/11/04 08:38:10;;;;;;;2.05;0.50;;;;;;;;;;5048229;28;20025;-77
2023/11/04 08:40:36;;;;;;;1.42;0.50;;;;;;;;;;5021872;28;20033;-78
2023/11/04 08:43:01;;;;;;;6.75;0.45;;;;;;;;;;5047390;28;20034;-77
2023/11/04 08:45:27;;;;;;;1.48;0.65;;;;;;;;;;5020571;28;20033;-77
2023/11/04 08:47:53;;;;;;;3.35;0.98;;;;;;;;;;5047959;28;20071;-78
2023/11/04 08:50:18;;;;;;;0.95;0.32;;;;;;;;;;5049405;28;20013;-77
2023/11/04 08:52:43;;;;;;;3.25;0.35;;;;;;;;;;5048461;28;20664;-77
2023/11/04 08:55:09;;;;;;;2.38;0.63;;;;;;;;;;5043482;28;20040;-77
2023/11/04 08:57:35;;;;;;;1.73;0.47;;;;;;;;;;5043803;28;20032;-77
2023/11/04 09:00:00;;;;;;;2.58;0.40;;;;;;;;;;5041905;28;20132;-77
2023/11/04 09:02:26;;;;;;;1.83;0.40;;;;;;;;;;5017157;28;20036;-78
2023/11/04 09:04:51;;;;;;;9.45;1.45;;;;;;;;;;5045688;28;20037;-78
2023/11/04 09:07:16;;;;;;;3.78;0.43;;;;;;;;;;5033460;28;20098;-77
2023/11/04 09:09:41;;;;;;;1.38;0.32;;;;;;;;;;5044354;28;20068;-77
2023/11/04 09:12:07;;;;;;;1.00;0.20;;;;;;;;;;5025968;28;20124;-78
2023/11/04 09:14:33;;;;;;;1.45;0.45;;;;;;;;;;5048488;28;20036;-78
2023/11/04 09:16:59;;;;;;;1.58;0.40;;;;;;;;;;5049605;28;20053;-78
2023/11/04 09:19:24;;;;;;;1.10;0.20;;;;;;;;;;5048506;28;20090;-77
2023/11/04 09:21:49;;;;;;;2.50;0.60;;;;;;;;;;5019068;28;20079;-77
2023/11/04 09:24:14;;;;;;;3.28;0.47;;;;;;;;;;5044475;28;20028;-78
2023/11/04 09:26:40;;;;;;;3.05;0.50;;;;;;;;;;5003368;28;20140;-78
2023/11/04 09:29:05;;;;;;;2.35;0.40;;;;;;;;;;5046630;28;20040;-78
2023/11/04 09:31:30;;;;;;;1.98;0.45;;;;;;;;;;5049372;28;20108;-78
2023/11/04 09:33:56;;;;;;;2.00;0.68;;;;;;;;;;5045575;28;20037;-78
2023/11/04 09:36:21;;;;;;;2.30;0.70;;;;;;;;;;5046475;28;20075;-77
2023/11/04 09:38:47;;;;;;;2.35;0.52;;;;;;;;;;5020899;28;20448;-77
2023/11/04 09:41:12;;;;;;;1.92;0.57;;;;;;;;;;5043234;28;20036;-77
2023/11/04 09:43:37;;;;;;;2.42;0.80;;;;;;;;;;5046548;28;20036;-77
2023/11/04 09:46:05;;;;;;;1.05;0.40;;;;;;;;;;5030178;28;20036;-77
2023/11/04 09:48:32;;;;;;;2.33;0.50;;;;;;;;;;5033281;28;20504;-77
2023/11/04 09:50:59;;;;;;;1.38;0.50;;;;;;;;;;5025329;28;20127;-77
2023/11/04 09:53:26;;;;;;;1.55;0.20;;;;;;;;;;5048768;28;20025;-78
2023/11/04 09:55:53;;;;;;;4.47;1.25;;;;;;;;;;5045534;28;20053;-78
2023/11/04 09:58:18;;;;;;;1.83;0.50;;;;;;;;;;5037172;28;20032;-77
2023/11/04 10:00:46;;;;;;;1.02;0.25;;;;;;;;;;5053470;28;20481;-77
2023/11/04 10:03:11;;;;;;;1.45;0.32;;;;;;;;;;5042624;28;20024;-77
2023/11/04 10:05:36;;;;;;;1.63;0.57;;;;;;;;;;5047293;28;20121;-78
2023/11/04 10:08:02;;;;;;;2.05;0.85;;;;;;;;;;5046295;28;20017;-78
2023/11/04 10:10:28;;;;;;;2.75;0.80;;;;;;;;;;5046749;28;20512;-78
2023/11/04 10:12:54;;;;;;;2.67;0.40;;;;;;;;;;5035545;28;20421;-78
2023/11/04 10:15:19;;;;;;;2.85;0.77;;;;;;;;;;5036690;28;20037;-78
2023/11/04 10:17:44;;;;;;;1.20;0.50;;;;;;;;;;5049205;28;20048;-77
2023/11/04 10:20:11;;;;;;;0.85;0.30;;;;;;;;;;5048198;28;20017;-78
2023/11/04 10:22:39;;;;;;;0.57;0.20;;;;;;;;;;5030321;28;20039;-78
2023/11/04 10:25:07;;;;;;;1.65;0.35;;;;;;;;;;5030713;28;20037;-78
2023/11/04 10:27:32;;;;;;;1.58;0.35;;;;;;;;;;5036564;28;20076;-78
2023/11/04 10:29:58;;;;;;;2.85;0.63;;;;;;;;;;5031895;28;20076;-78
2023/11/04 10:32:27;;;;;;;2.22;0.40;;;;;;;;;;5048768;28;20055;-78
2023/11/04 10:34:54;;;;;;;2.45;0.50;;;;;;;;;;5028648;28;20060;-78
2023/11/04 10:37:20;;;;;;;1.10;0.35;;;;;;;;;;5037193;28;20025;-78
2023/11/04 10:39:47;;;;;;;1.92;0.40;;;;;;;;;;5050132;28;20111;-78
2023/11/04 10:42:13;;;;;;;1.25;0.47;;;;;;;;;;5050691;28;20033;-78
2023/11/04 10:44:40;;;;;;;0.88;0.20;;;;;;;;;;5027662;28;20033;-78
2023/11/04 10:47:08;;;;;;;2.60;0.30;;;;;;;;;;5029302;28;20441;-78
2023/11/04 10:49:43;;;;;;;0.70;0.30;;;;;;;;;;5028649;28;20499;-78
2023/11/04 10:52:10;;;;;;;1.83;0.60;;;;;;;;;;5027262;28;20040;-77
2023/11/04 10:54:39;;;;;;;1.77;0.50;;;;;;;;;;5053329;28;20028;-78
2023/11/04 10:57:11;;;;;;;1.42;0.35;;;;;;;;;;5048719;28;20026;-78
2023/11/04 10:59:42;;;;;;;1.05;0.32;;;;;;;;;;5044825;28;20063;-78
2023/11/04 11:02:08;;;;;;;1.67;0.30;;;;;;;;;;5046672;28;20532;-78
2023/11/04 11:04:34;;;;;;;1.33;0.30;;;;;;;;;;5019068;28;20064;-78
2023/11/04 11:07:00;;;;;;;0.68;0.28;;;;;;;;;;5035475;28;20492;-78
2023/11/04 11:09:27;;;;;;;1.02;0.22;;;;;;;;;;5051757;28;20025;-78
2023/11/04 11:12:06;;;;;;;3.35;0.50;;;;;;;;;;5048303;28;20104;-78
2023/11/04 11:14:32;;;;;;;0.40;0.10;;;;;;;;;;5047214;28;20028;-78
2023/11/04 11:16:58;;;;;;;3.00;0.20;;;;;;;;;;5046848;28;20493;-77
2023/11/04 11:19:23;;;;;;;1.90;0.40;;;;;;;;;;5046230;28;20397;-78
2023/11/04 11:21:49;;;;;;;1.25;0.40;;;;;;;;;;5026308;28;20040;-78
2023/11/04 11:24:20;;;;;;;1.25;0.38;;;;;;;;;;5050782;28;20028;-77
2023/11/04 11:26:53;;;;;;;1.05;0.45;;;;;;;;;;5047965;28;20072;-78
2023/11/04 11:29:22;;;;;;;0.82;0.28;;;;;;;;;;5049465;28;20040;-78
2023/11/04 11:31:47;;;;;;;2.30;0.40;;;;;;;;;;5043812;28;20456;-78
2023/11/04 11:34:13;;;;;;;0.52;0.20;;;;;;;;;;5030974;28;20096;-78
2023/11/04 11:36:39;;;;;;;0.57;0.30;;;;;;;;;;5049174;28;20448;-78
2023/11/04 11:39:04;;;;;;;3.88;0.40;;;;;;;;;;5033065;28;20029;-78
2023/11/04 11:41:31;;;;;;;1.20;0.30;;;;;;;;;;5048714;28;20110;-78
2023/11/04 11:43:57;;;;;;;1.98;0.32;;;;;;;;;;5044390;28;20083;-78
2023/11/04 11:46:22;;;;;;;0.55;0.22;;;;;;;;;;5046074;28;20441;-78
2023/11/04 11:48:47;;;;;;;2.08;0.38;;;;;;;;;;5034685;28;20024;-78
2023/11/04 11:51:13;;;;;;;2.72;0.47;;;;;;;;;;5051078;28;20025;-78
2023/11/04 11:53:41;;;;;;;0.50;0.22;;;;;;;;;;5049514;28;20036;-78
2023/11/04 11:56:07;;;;;;;2.22;0.30;;;;;;;;;;5046367;28;20040;-78
2023/11/04 11:58:33;;;;;;;1.52;0.30;;;;;;;;;;5031203;28;20029;-78
2023/11/04 12:00:59;;;;;;;1.25;0.38;;;;;;;;;;5045518;28;20382;-78
2023/11/04 12:03:24;;;;;;;1.27;0.40;;;;;;;;;;5034760;28;20039;-78
2023/11/04 12:05:51;;;;;;;1.00;0.52;;;;;;;;;;5031437;28;20025;-78
2023/11/04 12:08:16;;;;;;;0.75;0.30;;;;;;;;;;5047864;28;20027;-78
2023/11/04 12:10:45;;;;;;;1.45;0.50;;;;;;;;;;5046079;28;20016;-78
2023/11/04 12:13:10;;;;;;;3.85;0.40;;;;;;;;;;5030575;28;20486;-78
2023/11/04 12:15:36;;;;;;;1.90;0.22;;;;;;;;;;5046876;28;20044;-78
2023/11/04 12:18:02;;;;;;;1.60;0.30;;;;;;;;;;5048365;28;20029;-78
2023/11/04 12:20:29;;;;;;;0.43;0.20;;;;;;;;;;5049786;28;20032;-78
2023/11/04 12:22:57;;;;;;;0.98;0.38;;;;;;;;;;5047931;28;20485;-78
2023/11/04 12:25:23;;;;;;;1.13;0.30;;;;;;;;;;5034700;28;20029;-78
2023/11/04 12:27:49;;;;;;;0.88;0.40;;;;;;;;;;5045582;28;20105;-78
2023/11/04 12:30:15;;;;;;;0.43;0.20;;;;;;;;;;5047781;28;20031;-78
2023/11/04 12:32:40;;;;;;;1.17;0.30;;;;;;;;;;5050740;28;20077;-78
2023/11/04 12:35:05;;;;;;;2.15;0.35;;;;;;;;;;5045928;28;20029;-78
2023/11/04 12:37:30;;;;;;;2.95;0.30;;;;;;;;;;5049678;28;20025;-78
2023/11/04 12:39:56;;;;;;;0.68;0.13;;;;;;;;;;5031454;28;20495;-78
2023/11/04 12:42:22;;;;;;;1.88;0.68;;;;;;;;;;5045060;28;20021;-78
2023/11/04 12:44:50;;;;;;;2.72;0.65;;;;;;;;;;5048027;28;20140;-78
2023/11/04 12:47:22;;;;;;;1.17;0.40;;;;;;;;;;5028111;28;20032;-78
2023/11/04 12:49:48;;;;;;;2.10;0.63;;;;;;;;;;5045128;28;20040;-78
2023/11/04 12:52:13;;;;;;;1.55;0.40;;;;;;;;;;5046867;28;20048;-78
2023/11/04 12:54:38;;;;;;;1.95;0.40;;;;;;;;;;5044195;28;20021;-78
2023/11/04 12:57:03;;;;;;;1.42;0.50;;;;;;;;;;5046367;28;20486;-78
2023/11/04 12:59:29;;;;;;;2.35;0.50;;;;;;;;;;5050245;28;20111;-78
2023/11/04 13:01:54;;;;;;;1.35;0.50;;;;;;;;;;5048055;28;20063;-78
2023/11/04 13:04:20;;;;;;;1.42;0.60;;;;;;;;;;5048066;28;20032;-78
2023/11/04 13:06:45;;;;;;;2.10;0.43;;;;;;;;;;5044963;28;20021;-78
2023/11/04 13:09:10;;;;;;;1.23;0.57;;;;;;;;;;5046418;28;20521;-78
2023/11/04 13:11:35;;;;;;;1.30;0.40;;;;;;;;;;5047899;28;20108;-79
2023/11/04 13:14:00;;;;;;;1.75;0.40;;;;;;;;;;5049431;28;20116;-79
2023/11/04 13:16:26;;;;;;;2.35;0.40;;;;;;;;;;5047988;28;20075;-78
2023/11/04 13:18:51;;;;;;;0.88;0.30;;;;;;;;;;5029997;28;20037;-78
2023/11/04 13:21:17;;;;;;;2.95;0.52;;;;;;;;;;5044665;28;20025;-78
2023/11/04 13:23:44;;;;;;;1.00;0.38;;;;;;;;;;5024677;28;20091;-78
2023/11/04 13:26:09;;;;;;;2.33;0.50;;;;;;;;;;5029302;28;20033;-78
2023/11/04 13:28:35;;;;;;;2.00;0.40;;;;;;;;;;5038720;28;20035;-78
2023/11/04 13:31:00;;;;;;;2.40;0.70;;;;;;;;;;5048891;28;20030;-78
2023/11/04 13:33:25;;;;;;;1.75;0.50;;;;;;;;;;5051061;28;20025;-78
2023/11/04 13:35:50;;;;;;;2.75;0.30;;;;;;;;;;5047014;28;20021;-78
2023/11/04 13:38:16;;;;;;;2.10;0.40;;;;;;;;;;5047685;28;20029;-78
2023/11/04 13:40:41;;;;;;;1.48;0.70;;;;;;;;;;5048112;28;20425;-78
2023/11/04 13:43:08;;;;;;;1.10;0.38;;;;;;;;;;5036449;28;20053;-78
2023/11/04 13:45:33;;;;;;;0.88;0.40;;;;;;;;;;5052139;28;20025;-78
2023/11/04 13:47:58;;;;;;;1.08;0.50;;;;;;;;;;5048025;28;20037;-78
2023/11/04 13:50:23;;;;;;;3.33;0.63;;;;;;;;;;5052531;28;20025;-78
2023/11/04 13:52:49;;;;;;;1.48;0.60;;;;;;;;;;5045938;28;20025;-78
2023/11/04 13:55:15;;;;;;;2.17;0.60;;;;;;;;;;5053620;28;20090;-78
2023/11/04 13:57:40;;;;;;;1.48;0.55;;;;;;;;;;5053159;28;20095;-78
2023/11/04 14:00:06;;;;;;;1.75;0.60;;;;;;;;;;5034095;28;20033;-78
2023/11/04 14:02:31;;;;;;;1.10;0.43;;;;;;;;;;5048805;28;20070;-78
2023/11/04 14:04:59;;;;;;;1.27;0.45;;;;;;;;;;5009976;28;20436;-78
2023/11/04 14:07:24;;;;;;;2.92;0.40;;;;;;;;;;5051152;28;20055;-78
2023/11/04 14:09:49;;;;;;;1.30;0.60;;;;;;;;;;5053926;28;20488;-78
2023/11/04 14:12:15;;;;;;;1.67;0.60;;;;;;;;;;5025530;28;20520;-77
2023/11/04 14:14:40;;;;;;;0.73;0.40;;;;;;;;;;5051330;28;20120;-77
2023/11/04 14:17:05;;;;;;;1.30;0.50;;;;;;;;;;5046175;28;20064;-77
2023/11/04 14:19:31;;;;;;;1.00;0.40;;;;;;;;;;5046678;28;20111;-76
2023/11/04 14:21:57;;;;;;;1.80;0.63;;;;;;;;;;5053209;28;20067;-77
2023/11/04 14:24:22;;;;;;;2.17;0.82;;;;;;;;;;5035238;28;20040;-77
2023/11/04 14:26:47;;;;;;;0.93;0.40;;;;;;;;;;5051016;28;20025;-77
2023/11/04 14:29:12;;;;;;;1.42;0.40;;;;;;;;;;5048094;28;20030;-77
2023/11/04 14:31:38;;;;;;;1.35;0.50;;;;;;;;;;5028635;28;20025;-77
2023/11/04 14:34:04;;;;;;;0.80;0.38;;;;;;;;;;5043864;28;20151;-77